Lobo

Go HERE for most recent data if this page is not up to date.

Jump to table bottom
Date/Time Temp deg F RH % 24 Hr Snow (in) Snow Depth (in) H2O (in)
06/18 22:00 31.9 75 "NAN" 4.1 0.00
06/18 21:00 32.7 75 "NAN" 4.2 0.00
06/18 20:00 33.6 69 "NAN" 4.3 0.00
06/18 19:00 33.9 65 "NAN" 4.4 0.00
06/18 18:00 34.0 66 "NAN" 4.5 0.00
06/18 17:00 34.2 69 "NAN" 5.0 0.00
06/18 16:00 32.1 76 "NAN" 5.6 0.00
06/18 15:00 33.0 82 "NAN" 6.3 0.00
06/18 14:00 35.1 63 "NAN" 7.6 0.00
06/18 13:00 33.2 73 "NAN" 8.5 0.00
06/18 12:00 30.8 71 "NAN" 8.7 0.00
06/18 11:00 30.8 68 "NAN" 8.9 0.00
06/18 10:00 30.4 75 "NAN" 9.2 0.00
06/18 09:00 27.8 81 "NAN" 9.5 0.00
06/18 08:00 24.9 86 "NAN" 9.9 0.00
06/18 07:00 23.3 88 "NAN" 10.1 0.00
06/18 06:00 23.4 89 "NAN" 10.4 0.00
06/18 05:00 23.6 94 "NAN" 10.7 0.00
06/18 04:00 24.0 93 "NAN" 10.9 0.01
06/18 03:00 24.2 98 "NAN" 11.0 0.00
06/18 02:00 24.6 98 "NAN" 11.2 0.02
06/18 01:00 24.6 100 "NAN" 11.4 0.02
06/18 00:00 24.4 98 "NAN" 11.4 0.04
06/17 23:00 24.4 100 "NAN" 11.2 0.11
06/17 22:00 25.0 100 "NAN" 9.9 0.10
06/17 21:00 26.1 100 "NAN" 7.4 0.12
06/17 20:00 26.8 100 "NAN" 4.0 0.01
06/17 19:00 28.6 100 "NAN" 3.5 0.01
06/17 18:00 29.6 92 "NAN" 3.1 0.03
06/17 17:00 29.8 100 "NAN" 2.7 0.03
06/17 16:00 30.1 100 "NAN" 1.9 0.03
06/17 15:00 30.0 100 "NAN" 1.5 0.02
06/17 14:00 30.8 100 "NAN" 1.2 0.02
06/17 13:00 30.3 100 "NAN" 0.9 0.00
06/17 12:00 30.7 100 "NAN" 1.0 0.01
06/17 11:00 29.4 100 "NAN" 0.9 0.05
06/17 10:00 28.3 100 "NAN" 0.9 0.03
06/17 09:00 30.9 92 "NAN" 0.9 0.00
06/17 08:00 33.4 86 "NAN" 0.8 0.00
06/17 07:00 36.2 61 "NAN" 0.8 0.00
06/17 06:00 34.7 72 "NAN" 0.8 0.00
06/17 05:00 34.7 74 "NAN" 0.9 0.00
06/17 04:00 35.3 61 "NAN" 0.9 0.00
06/17 03:00 35.5 58 "NAN" 0.9 0.00
06/17 02:00 36.0 48 "NAN" 1.0 0.00
06/17 01:00 36.4 44 "NAN" 0.9 0.00
06/17 00:00 38.1 50 "NAN" 0.9 0.00
.